sensor_id;sensor_type;location;lat;lon;timestamp;P1;durP1;ratioP1;P2;durP2;ratioP2
41921;SDS011;27609;51.002;5.354;2023-03-01T00:00:53;13.30;;;7.75;;
41921;SDS011;27609;51.002;5.354;2023-03-01T00:03:19;11.52;;;7.22;;
41921;SDS011;27609;51.002;5.354;2023-03-01T00:05:45;16.25;;;7.45;;
41921;SDS011;27609;51.002;5.354;2023-03-01T00:08:12;10.80;;;6.40;;
41921;SDS011;27609;51.002;5.354;2023-03-01T00:10:37;13.98;;;8.13;;
41921;SDS011;27609;51.002;5.354;2023-03-01T00:13:03;13.90;;;8.32;;
41921;SDS011;27609;51.002;5.354;2023-03-01T00:15:30;10.95;;;7.20;;
41921;SDS011;27609;51.002;5.354;2023-03-01T00:17:56;9.55;;;7.32;;
41921;SDS011;27609;51.002;5.354;2023-03-01T00:20:22;12.68;;;7.47;;
41921;SDS011;27609;51.002;5.354;2023-03-01T00:22:48;24.30;;;7.28;;
41921;SDS011;27609;51.002;5.354;2023-03-01T00:25:14;12.38;;;7.35;;
41921;SDS011;27609;51.002;5.354;2023-03-01T00:27:39;14.30;;;8.32;;
41921;SDS011;27609;51.002;5.354;2023-03-01T00:30:05;12.63;;;6.80;;
41921;SDS011;27609;51.002;5.354;2023-03-01T00:32:31;10.55;;;8.07;;
41921;SDS011;27609;51.002;5.354;2023-03-01T00:34:57;15.65;;;7.70;;
41921;SDS011;27609;51.002;5.354;2023-03-01T00:37:23;15.02;;;8.35;;
41921;SDS011;27609;51.002;5.354;2023-03-01T00:39:49;14.65;;;8.20;;
41921;SDS011;27609;51.002;5.354;2023-03-01T00:42:15;11.40;;;8.00;;
41921;SDS011;27609;51.002;5.354;2023-03-01T00:44:41;15.90;;;8.80;;
41921;SDS011;27609;51.002;5.354;2023-03-01T00:47:07;12.18;;;8.48;;
41921;SDS011;27609;51.002;5.354;2023-03-01T00:49:32;12.93;;;8.57;;
41921;SDS011;27609;51.002;5.354;2023-03-01T00:51:58;15.70;;;8.80;;
41921;SDS011;27609;51.002;5.354;2023-03-01T00:54:24;12.65;;;8.95;;
41921;SDS011;27609;51.002;5.354;2023-03-01T00:56:49;16.33;;;8.25;;
41921;SDS011;27609;51.002;5.354;2023-03-01T00:59:15;14.75;;;7.85;;
41921;SDS011;27609;51.002;5.354;2023-03-01T01:01:41;15.63;;;8.32;;
41921;SDS011;27609;51.002;5.354;2023-03-01T01:04:08;14.93;;;8.75;;
41921;SDS011;27609;51.002;5.354;2023-03-01T01:06:39;11.88;;;8.25;;
41921;SDS011;27609;51.002;5.354;2023-03-01T01:09:10;15.55;;;8.60;;
41921;SDS011;27609;51.002;5.354;2023-03-01T01:11:42;13.77;;;8.32;;
41921;SDS011;27609;51.002;5.354;2023-03-01T01:14:08;11.32;;;8.35;;
41921;SDS011;27609;51.002;5.354;2023-03-01T01:16:34;13.82;;;9.02;;
41921;SDS011;27609;51.002;5.354;2023-03-01T01:19:00;11.82;;;8.95;;
41921;SDS011;27609;51.002;5.354;2023-03-01T01:21:26;14.02;;;8.35;;
41921;SDS011;27609;51.002;5.354;2023-03-01T01:23:52;12.65;;;8.23;;
41921;SDS011;27609;51.002;5.354;2023-03-01T01:26:19;13.13;;;8.73;;
41921;SDS011;27609;51.002;5.354;2023-03-01T01:28:53;13.80;;;8.88;;
41921;SDS011;27609;51.002;5.354;2023-03-01T01:31:19;13.27;;;8.02;;
41921;SDS011;27609;51.002;5.354;2023-03-01T01:33:48;11.32;;;8.82;;
41921;SDS011;27609;51.002;5.354;2023-03-01T01:36:14;15.38;;;9.18;;
41921;SDS011;27609;51.002;5.354;2023-03-01T01:38:41;17.58;;;9.27;;
41921;SDS011;27609;51.002;5.354;2023-03-01T01:41:07;14.10;;;8.25;;
41921;SDS011;27609;51.002;5.354;2023-03-01T01:43:40;16.60;;;8.55;;
41921;SDS011;27609;51.002;5.354;2023-03-01T01:46:14;11.27;;;7.63;;
41921;SDS011;27609;51.002;5.354;2023-03-01T01:48:57;17.75;;;9.18;;
41921;SDS011;27609;51.002;5.354;2023-03-01T01:51:31;10.65;;;7.60;;
41921;SDS011;27609;51.002;5.354;2023-03-01T01:54:03;16.77;;;9.73;;
41921;SDS011;27609;51.002;5.354;2023-03-01T01:56:36;13.35;;;9.77;;
41921;SDS011;27609;51.002;5.354;2023-03-01T01:59:03;18.08;;;10.15;;
41921;SDS011;27609;51.002;5.354;2023-03-01T02:01:29;12.60;;;9.25;;
41921;SDS011;27609;51.002;5.354;2023-03-01T02:03:55;14.38;;;8.57;;
41921;SDS011;27609;51.002;5.354;2023-03-01T02:08:54;15.50;;;9.27;;
41921;SDS011;27609;51.002;5.354;2023-03-01T02:11:31;11.95;;;8.93;;
41921;SDS011;27609;51.002;5.354;2023-03-01T02:13:58;14.02;;;8.82;;
41921;SDS011;27609;51.002;5.354;2023-03-01T02:16:24;14.15;;;8.80;;
41921;SDS011;27609;51.002;5.354;2023-03-01T02:18:51;13.60;;;9.27;;
41921;SDS011;27609;51.002;5.354;2023-03-01T02:24:43;13.60;;;8.27;;
41921;SDS011;27609;51.002;5.354;2023-03-01T02:27:13;14.38;;;9.60;;
41921;SDS011;27609;51.002;5.354;2023-03-01T02:29:38;14.25;;;9.10;;
41921;SDS011;27609;51.002;5.354;2023-03-01T02:32:04;16.70;;;9.75;;
41921;SDS011;27609;51.002;5.354;2023-03-01T02:34:30;18.17;;;9.45;;
41921;SDS011;27609;51.002;5.354;2023-03-01T02:36:59;13.77;;;9.10;;
41921;SDS011;27609;51.002;5.354;2023-03-01T02:39:42;15.10;;;10.25;;
41921;SDS011;27609;51.002;5.354;2023-03-01T02:42:13;16.05;;;9.57;;
41921;SDS011;27609;51.002;5.354;2023-03-01T02:44:43;18.40;;;10.27;;
41921;SDS011;27609;51.002;5.354;2023-03-01T02:47:09;13.95;;;8.93;;
41921;SDS011;27609;51.002;5.354;2023-03-01T02:49:36;18.35;;;9.63;;
41921;SDS011;27609;51.002;5.354;2023-03-01T02:52:23;18.88;;;9.63;;
41921;SDS011;27609;51.002;5.354;2023-03-01T02:55:11;15.52;;;8.50;;
41921;SDS011;27609;51.002;5.354;2023-03-01T02:57:40;16.67;;;8.45;;
41921;SDS011;27609;51.002;5.354;2023-03-01T03:00:09;13.57;;;8.98;;
41921;SDS011;27609;51.002;5.354;2023-03-01T03:02:44;18.33;;;10.07;;
41921;SDS011;27609;51.002;5.354;2023-03-01T03:05:13;16.13;;;8.82;;
41921;SDS011;27609;51.002;5.354;2023-03-01T03:07:42;16.35;;;8.93;;
41921;SDS011;27609;51.002;5.354;2023-03-01T03:10:10;16.08;;;9.70;;
41921;SDS011;27609;51.002;5.354;2023-03-01T03:12:50;11.98;;;9.00;;
41921;SDS011;27609;51.002;5.354;2023-03-01T03:15:18;16.05;;;9.25;;
41921;SDS011;27609;51.002;5.354;2023-03-01T03:17:45;19.48;;;10.10;;
41921;SDS011;27609;51.002;5.354;2023-03-01T03:20:12;14.45;;;8.27;;
41921;SDS011;27609;51.002;5.354;2023-03-01T03:22:44;14.82;;;9.27;;
41921;SDS011;27609;51.002;5.354;2023-03-01T03:25:14;13.40;;;9.82;;
41921;SDS011;27609;51.002;5.354;2023-03-01T03:27:41;16.55;;;9.35;;
41921;SDS011;27609;51.002;5.354;2023-03-01T03:30:10;16.15;;;10.38;;
41921;SDS011;27609;51.002;5.354;2023-03-01T03:32:42;13.93;;;9.30;;
41921;SDS011;27609;51.002;5.354;2023-03-01T03:35:23;15.82;;;9.25;;
41921;SDS011;27609;51.002;5.354;2023-03-01T03:37:51;13.50;;;8.52;;
41921;SDS011;27609;51.002;5.354;2023-03-01T03:42:55;18.15;;;10.00;;
41921;SDS011;27609;51.002;5.354;2023-03-01T03:45:21;17.10;;;9.27;;
41921;SDS011;27609;51.002;5.354;2023-03-01T03:47:47;14.65;;;9.70;;
41921;SDS011;27609;51.002;5.354;2023-03-01T03:50:13;17.30;;;9.65;;
41921;SDS011;27609;51.002;5.354;2023-03-01T03:52:40;12.90;;;9.02;;
41921;SDS011;27609;51.002;5.354;2023-03-01T03:55:06;17.02;;;10.02;;
41921;SDS011;27609;51.002;5.354;2023-03-01T03:57:34;17.08;;;9.88;;
41921;SDS011;27609;51.002;5.354;2023-03-01T04:00:00;15.57;;;9.60;;
41921;SDS011;27609;51.002;5.354;2023-03-01T04:02:28;16.20;;;9.65;;
41921;SDS011;27609;51.002;5.354;2023-03-01T04:04:54;13.63;;;9.32;;
41921;SDS011;27609;51.002;5.354;2023-03-01T04:07:20;12.45;;;8.77;;
41921;SDS011;27609;51.002;5.354;2023-03-01T04:09:45;14.70;;;9.05;;
41921;SDS011;27609;51.002;5.354;2023-03-01T04:12:11;17.85;;;10.25;;
41921;SDS011;27609;51.002;5.354;2023-03-01T04:14:36;14.23;;;9.55;;
41921;SDS011;27609;51.002;5.354;2023-03-01T04:17:02;14.93;;;9.18;;
41921;SDS011;27609;51.002;5.354;2023-03-01T04:19:30;14.05;;;9.18;;
41921;SDS011;27609;51.002;5.354;2023-03-01T04:22:01;15.63;;;9.02;;
41921;SDS011;27609;51.002;5.354;2023-03-01T04:24:32;13.98;;;9.02;;
41921;SDS011;27609;51.002;5.354;2023-03-01T04:26:58;17.75;;;9.98;;
41921;SDS011;27609;51.002;5.354;2023-03-01T04:29:24;15.82;;;9.43;;
41921;SDS011;27609;51.002;5.354;2023-03-01T04:31:49;14.73;;;9.65;;
41921;SDS011;27609;51.002;5.354;2023-03-01T04:34:15;14.88;;;9.20;;
41921;SDS011;27609;51.002;5.354;2023-03-01T04:36:41;16.15;;;10.27;;
41921;SDS011;27609;51.002;5.354;2023-03-01T04:39:06;15.43;;;10.30;;
41921;SDS011;27609;51.002;5.354;2023-03-01T04:41:37;17.88;;;10.50;;
41921;SDS011;27609;51.002;5.354;2023-03-01T04:44:04;18.45;;;9.32;;
41921;SDS011;27609;51.002;5.354;2023-03-01T04:46:30;15.75;;;9.85;;
41921;SDS011;27609;51.002;5.354;2023-03-01T04:48:56;21.23;;;10.73;;
41921;SDS011;27609;51.002;5.354;2023-03-01T04:51:21;20.23;;;11.02;;
41921;SDS011;27609;51.002;5.354;2023-03-01T04:53:47;18.33;;;9.95;;
41921;SDS011;27609;51.002;5.354;2023-03-01T04:56:13;18.77;;;10.93;;
41921;SDS011;27609;51.002;5.354;2023-03-01T04:58:39;14.40;;;10.15;;
41921;SDS011;27609;51.002;5.354;2023-03-01T05:01:08;19.42;;;11.02;;
41921;SDS011;27609;51.002;5.354;2023-03-01T05:03:40;17.05;;;10.13;;
41921;SDS011;27609;51.002;5.354;2023-03-01T05:06:09;15.60;;;9.95;;
41921;SDS011;27609;51.002;5.354;2023-03-01T05:08:36;13.80;;;9.68;;
41921;SDS011;27609;51.002;5.354;2023-03-01T05:11:05;17.02;;;10.52;;
41921;SDS011;27609;51.002;5.354;2023-03-01T05:13:33;15.18;;;9.57;;
41921;SDS011;27609;51.002;5.354;2023-03-01T05:16:00;20.15;;;9.70;;
41921;SDS011;27609;51.002;5.354;2023-03-01T05:18:27;18.08;;;10.45;;
41921;SDS011;27609;51.002;5.354;2023-03-01T05:20:55;17.55;;;10.40;;
41921;SDS011;27609;51.002;5.354;2023-03-01T05:23:26;15.52;;;10.48;;
41921;SDS011;27609;51.002;5.354;2023-03-01T05:25:52;17.55;;;10.63;;
41921;SDS011;27609;51.002;5.354;2023-03-01T05:28:18;18.88;;;10.90;;
41921;SDS011;27609;51.002;5.354;2023-03-01T05:30:45;23.38;;;10.70;;
41921;SDS011;27609;51.002;5.354;2023-03-01T05:33:11;24.48;;;10.50;;
41921;SDS011;27609;51.002;5.354;2023-03-01T05:35:43;17.45;;;10.00;;
41921;SDS011;27609;51.002;5.354;2023-03-01T05:38:10;21.87;;;10.70;;
41921;SDS011;27609;51.002;5.354;2023-03-01T05:40:43;18.88;;;11.10;;
41921;SDS011;27609;51.002;5.354;2023-03-01T05:43:11;19.17;;;11.52;;
41921;SDS011;27609;51.002;5.354;2023-03-01T05:45:38;16.75;;;11.00;;
41921;SDS011;27609;51.002;5.354;2023-03-01T05:48:04;21.67;;;11.55;;
41921;SDS011;27609;51.002;5.354;2023-03-01T05:50:35;18.75;;;11.02;;
41921;SDS011;27609;51.002;5.354;2023-03-01T05:53:13;18.48;;;10.88;;
41921;SDS011;27609;51.002;5.354;2023-03-01T05:55:44;18.80;;;10.68;;
41921;SDS011;27609;51.002;5.354;2023-03-01T05:58:13;17.88;;;10.80;;
41921;SDS011;27609;51.002;5.354;2023-03-01T06:00:40;18.02;;;11.80;;
41921;SDS011;27609;51.002;5.354;2023-03-01T06:03:09;17.50;;;10.32;;
41921;SDS011;27609;51.002;5.354;2023-03-01T06:05:36;18.60;;;10.95;;
41921;SDS011;27609;51.002;5.354;2023-03-01T06:08:02;18.70;;;10.43;;
41921;SDS011;27609;51.002;5.354;2023-03-01T06:10:28;23.80;;;10.90;;
41921;SDS011;27609;51.002;5.354;2023-03-01T06:12:54;19.88;;;11.07;;
41921;SDS011;27609;51.002;5.354;2023-03-01T06:15:21;18.15;;;10.88;;
41921;SDS011;27609;51.002;5.354;2023-03-01T06:17:47;19.02;;;11.40;;
41921;SDS011;27609;51.002;5.354;2023-03-01T06:20:15;22.05;;;11.77;;
41921;SDS011;27609;51.002;5.354;2023-03-01T06:22:45;21.20;;;11.02;;
41921;SDS011;27609;51.002;5.354;2023-03-01T06:25:12;23.88;;;11.82;;
41921;SDS011;27609;51.002;5.354;2023-03-01T06:27:39;19.65;;;10.65;;
41921;SDS011;27609;51.002;5.354;2023-03-01T06:30:05;20.60;;;10.35;;
41921;SDS011;27609;51.002;5.354;2023-03-01T06:32:33;16.55;;;10.07;;
41921;SDS011;27609;51.002;5.354;2023-03-01T06:34:58;17.85;;;9.68;;
41921;SDS011;27609;51.002;5.354;2023-03-01T06:37:24;18.42;;;10.68;;
41921;SDS011;27609;51.002;5.354;2023-03-01T06:39:50;23.13;;;10.90;;
41921;SDS011;27609;51.002;5.354;2023-03-01T06:42:16;17.15;;;9.98;;
41921;SDS011;27609;51.002;5.354;2023-03-01T06:44:42;15.35;;;10.68;;
41921;SDS011;27609;51.002;5.354;2023-03-01T06:47:08;20.00;;;10.80;;
41921;SDS011;27609;51.002;5.354;2023-03-01T06:49:34;26.58;;;10.32;;
41921;SDS011;27609;51.002;5.354;2023-03-01T06:52:00;16.67;;;9.52;;
41921;SDS011;27609;51.002;5.354;2023-03-01T06:54:25;17.95;;;9.60;;
41921;SDS011;27609;51.002;5.354;2023-03-01T06:56:51;19.40;;;10.90;;
41921;SDS011;27609;51.002;5.354;2023-03-01T06:59:18;17.13;;;10.15;;
41921;SDS011;27609;51.002;5.354;2023-03-01T07:01:44;24.65;;;9.38;;
41921;SDS011;27609;51.002;5.354;2023-03-01T07:04:10;13.35;;;8.85;;
41921;SDS011;27609;51.002;5.354;2023-03-01T07:06:37;16.88;;;8.90;;
41921;SDS011;27609;51.002;5.354;2023-03-01T07:09:03;11.98;;;8.82;;
41921;SDS011;27609;51.002;5.354;2023-03-01T07:11:28;14.63;;;9.07;;
41921;SDS011;27609;51.002;5.354;2023-03-01T07:13:54;13.35;;;8.25;;
41921;SDS011;27609;51.002;5.354;2023-03-01T07:16:20;13.02;;;9.20;;
41921;SDS011;27609;51.002;5.354;2023-03-01T07:18:46;13.93;;;9.07;;
41921;SDS011;27609;51.002;5.354;2023-03-01T07:21:13;21.90;;;10.38;;
41921;SDS011;27609;51.002;5.354;2023-03-01T07:23:39;21.38;;;10.50;;
41921;SDS011;27609;51.002;5.354;2023-03-01T07:26:05;16.02;;;8.85;;
41921;SDS011;27609;51.002;5.354;2023-03-01T07:28:31;13.80;;;9.45;;
41921;SDS011;27609;51.002;5.354;2023-03-01T07:31:03;15.40;;;9.48;;
41921;SDS011;27609;51.002;5.354;2023-03-01T07:33:30;23.23;;;10.13;;
41921;SDS011;27609;51.002;5.354;2023-03-01T07:35:59;10.90;;;8.25;;
41921;SDS011;27609;51.002;5.354;2023-03-01T07:40:52;14.40;;;9.23;;
41921;SDS011;27609;51.002;5.354;2023-03-01T07:43:22;13.90;;;9.05;;
41921;SDS011;27609;51.002;5.354;2023-03-01T07:45:47;11.93;;;9.05;;
41921;SDS011;27609;51.002;5.354;2023-03-01T07:48:13;10.30;;;7.85;;
41921;SDS011;27609;51.002;5.354;2023-03-01T07:50:39;10.80;;;8.75;;
41921;SDS011;27609;51.002;5.354;2023-03-01T07:53:04;13.30;;;8.88;;
41921;SDS011;27609;51.002;5.354;2023-03-01T07:55:30;10.40;;;9.20;;
41921;SDS011;27609;51.002;5.354;2023-03-01T07:57:56;11.73;;;9.05;;
41921;SDS011;27609;51.002;5.354;2023-03-01T08:00:21;11.98;;;8.80;;
41921;SDS011;27609;51.002;5.354;2023-03-01T08:02:47;9.30;;;8.18;;
41921;SDS011;27609;51.002;5.354;2023-03-01T08:05:13;11.65;;;9.25;;
41921;SDS011;27609;51.002;5.354;2023-03-01T08:07:39;11.98;;;8.70;;
41921;SDS011;27609;51.002;5.354;2023-03-01T08:10:05;12.25;;;8.45;;
41921;SDS011;27609;51.002;5.354;2023-03-01T08:12:30;13.43;;;9.15;;
41921;SDS011;27609;51.002;5.354;2023-03-01T08:14:56;12.07;;;8.68;;
41921;SDS011;27609;51.002;5.354;2023-03-01T08:17:22;12.30;;;8.88;;
41921;SDS011;27609;51.002;5.354;2023-03-01T08:19:48;13.35;;;9.65;;
41921;SDS011;27609;51.002;5.354;2023-03-01T08:22:14;10.25;;;8.50;;
41921;SDS011;27609;51.002;5.354;2023-03-01T08:24:39;10.43;;;8.90;;
41921;SDS011;27609;51.002;5.354;2023-03-01T08:27:05;11.77;;;8.75;;
41921;SDS011;27609;51.002;5.354;2023-03-01T08:29:31;15.45;;;10.10;;
41921;SDS011;27609;51.002;5.354;2023-03-01T08:31:57;12.90;;;9.20;;
41921;SDS011;27609;51.002;5.354;2023-03-01T08:34:23;9.88;;;8.43;;
41921;SDS011;27609;51.002;5.354;2023-03-01T08:36:49;11.68;;;8.90;;
41921;SDS011;27609;51.002;5.354;2023-03-01T08:39:17;16.77;;;9.63;;
41921;SDS011;27609;51.002;5.354;2023-03-01T08:41:44;9.82;;;8.43;;
41921;SDS011;27609;51.002;5.354;2023-03-01T08:44:11;15.52;;;9.25;;
41921;SDS011;27609;51.002;5.354;2023-03-01T08:46:39;11.18;;;9.02;;
41921;SDS011;27609;51.002;5.354;2023-03-01T08:49:16;12.63;;;9.32;;
41921;SDS011;27609;51.002;5.354;2023-03-01T08:51:43;9.88;;;8.50;;
41921;SDS011;27609;51.002;5.354;2023-03-01T08:54:11;13.10;;;8.70;;
41921;SDS011;27609;51.002;5.354;2023-03-01T08:56:39;10.90;;;9.05;;
41921;SDS011;27609;51.002;5.354;2023-03-01T08:59:05;12.00;;;8.63;;
41921;SDS011;27609;51.002;5.354;2023-03-01T09:01:31;11.10;;;8.52;;
41921;SDS011;27609;51.002;5.354;2023-03-01T09:03:56;12.70;;;8.90;;
41921;SDS011;27609;51.002;5.354;2023-03-01T09:06:22;9.82;;;8.55;;
41921;SDS011;27609;51.002;5.354;2023-03-01T09:08:48;15.10;;;8.57;;
41921;SDS011;27609;51.002;5.354;2023-03-01T09:11:16;13.55;;;8.35;;
41921;SDS011;27609;51.002;5.354;2023-03-01T09:13:43;12.50;;;8.82;;
41921;SDS011;27609;51.002;5.354;2023-03-01T09:16:10;12.30;;;9.18;;
41921;SDS011;27609;51.002;5.354;2023-03-01T09:18:37;13.73;;;8.48;;
41921;SDS011;27609;51.002;5.354;2023-03-01T09:23:36;11.23;;;9.27;;
41921;SDS011;27609;51.002;5.354;2023-03-01T09:26:04;13.73;;;9.05;;
41921;SDS011;27609;51.002;5.354;2023-03-01T09:28:30;13.65;;;9.18;;
41921;SDS011;27609;51.002;5.354;2023-03-01T09:30:59;13.88;;;9.07;;
41921;SDS011;27609;51.002;5.354;2023-03-01T09:33:26;14.23;;;8.68;;
41921;SDS011;27609;51.002;5.354;2023-03-01T09:36:00;15.75;;;8.60;;
41921;SDS011;27609;51.002;5.354;2023-03-01T09:38:28;12.52;;;8.80;;
41921;SDS011;27609;51.002;5.354;2023-03-01T09:40:54;10.25;;;9.13;;
41921;SDS011;27609;51.002;5.354;2023-03-01T09:43:42;13.98;;;9.15;;
41921;SDS011;27609;51.002;5.354;2023-03-01T09:46:19;11.10;;;9.13;;
41921;SDS011;27609;51.002;5.354;2023-03-01T09:48:55;13.18;;;9.18;;
41921;SDS011;27609;51.002;5.354;2023-03-01T09:51:29;11.60;;;8.60;;
41921;SDS011;27609;51.002;5.354;2023-03-01T09:53:58;13.13;;;9.15;;
41921;SDS011;27609;51.002;5.354;2023-03-01T09:56:34;10.70;;;8.73;;
41921;SDS011;27609;51.002;5.354;2023-03-01T10:09:39;14.70;;;10.23;;
41921;SDS011;27609;51.002;5.354;2023-03-01T10:12:09;13.52;;;9.43;;
41921;SDS011;27609;51.002;5.354;2023-03-01T10:14:43;10.45;;;8.98;;
41921;SDS011;27609;51.002;5.354;2023-03-01T10:20:19;11.38;;;9.38;;
41921;SDS011;27609;51.002;5.354;2023-03-01T10:22:45;14.45;;;10.38;;
41921;SDS011;27609;51.002;5.354;2023-03-01T10:25:15;12.27;;;9.90;;
41921;SDS011;27609;51.002;5.354;2023-03-01T10:28:09;11.85;;;9.65;;
41921;SDS011;27609;51.002;5.354;2023-03-01T10:30:42;12.52;;;9.30;;
41921;SDS011;27609;51.002;5.354;2023-03-01T10:35:46;16.27;;;10.23;;
41921;SDS011;27609;51.002;5.354;2023-03-01T10:38:13;11.23;;;9.25;;
41921;SDS011;27609;51.002;5.354;2023-03-01T10:40:51;16.52;;;11.23;;
41921;SDS011;27609;51.002;5.354;2023-03-01T10:43:22;14.35;;;10.88;;
41921;SDS011;27609;51.002;5.354;2023-03-01T10:45:49;12.70;;;10.15;;
41921;SDS011;27609;51.002;5.354;2023-03-01T10:48:19;15.70;;;11.15;;
41921;SDS011;27609;51.002;5.354;2023-03-01T10:53:24;15.45;;;11.77;;
41921;SDS011;27609;51.002;5.354;2023-03-01T10:55:57;17.08;;;12.85;;
41921;SDS011;27609;51.002;5.354;2023-03-01T10:58:28;23.13;;;16.25;;
41921;SDS011;27609;51.002;5.354;2023-03-01T11:00:59;20.25;;;16.15;;
41921;SDS011;27609;51.002;5.354;2023-03-01T11:08:45;17.45;;;12.20;;
41921;SDS011;27609;51.002;5.354;2023-03-01T11:14:03;23.85;;;18.35;;
41921;SDS011;27609;51.002;5.354;2023-03-01T11:16:38;21.67;;;15.05;;
41921;SDS011;27609;51.002;5.354;2023-03-01T11:21:42;15.45;;;10.73;;
41921;SDS011;27609;51.002;5.354;2023-03-01T11:24:29;21.45;;;15.02;;
41921;SDS011;27609;51.002;5.354;2023-03-01T11:27:06;20.23;;;14.90;;
41921;SDS011;27609;51.002;5.354;2023-03-01T11:32:25;22.33;;;16.50;;
41921;SDS011;27609;51.002;5.354;2023-03-01T11:34:58;30.27;;;22.40;;
41921;SDS011;27609;51.002;5.354;2023-03-01T11:37:40;38.88;;;25.92;;
41921;SDS011;27609;51.002;5.354;2023-03-01T11:40:26;21.42;;;16.92;;
41921;SDS011;27609;51.002;5.354;2023-03-01T11:43:14;19.40;;;11.52;;
41921;SDS011;27609;51.002;5.354;2023-03-01T11:46:07;14.13;;;10.52;;
41921;SDS011;27609;51.002;5.354;2023-03-01T11:48:55;10.57;;;8.80;;
41921;SDS011;27609;51.002;5.354;2023-03-01T12:00:01;12.02;;;9.75;;
41921;SDS011;27609;51.002;5.354;2023-03-01T12:06:02;12.20;;;9.80;;
41921;SDS011;27609;51.002;5.354;2023-03-01T12:11:11;12.18;;;9.65;;
41921;SDS011;27609;51.002;5.354;2023-03-01T12:16:57;12.10;;;8.98;;
41921;SDS011;27609;51.002;5.354;2023-03-01T12:25:20;13.88;;;9.73;;
41921;SDS011;27609;51.002;5.354;2023-03-01T12:37:17;13.13;;;9.32;;
41921;SDS011;27609;51.002;5.354;2023-03-01T12:39:42;13.15;;;9.40;;
41921;SDS011;27609;51.002;5.354;2023-03-01T12:42:31;86.60;;;12.82;;
41921;SDS011;27609;51.002;5.354;2023-03-01T12:48:08;12.63;;;9.02;;
41921;SDS011;27609;51.002;5.354;2023-03-01T12:50:50;27.20;;;9.10;;
41921;SDS011;27609;51.002;5.354;2023-03-01T12:53:53;12.70;;;8.65;;
41921;SDS011;27609;51.002;5.354;2023-03-01T12:56:12;11.32;;;8.57;;
41921;SDS011;27609;51.002;5.354;2023-03-01T12:58:46;10.82;;;9.20;;
41921;SDS011;27609;51.002;5.354;2023-03-01T13:04:23;13.98;;;8.73;;
41921;SDS011;27609;51.002;5.354;2023-03-01T13:17:51;13.77;;;8.70;;
41921;SDS011;27609;51.002;5.354;2023-03-01T13:20:21;11.70;;;9.07;;
41921;SDS011;27609;51.002;5.354;2023-03-01T13:25:29;11.20;;;8.68;;
41921;SDS011;27609;51.002;5.354;2023-03-01T13:30:59;12.32;;;9.10;;
41921;SDS011;27609;51.002;5.354;2023-03-01T13:35:51;15.30;;;10.20;;
41921;SDS011;27609;51.002;5.354;2023-03-01T13:41:17;13.10;;;9.15;;
41921;SDS011;27609;51.002;5.354;2023-03-01T13:44:11;15.38;;;9.85;;
41921;SDS011;27609;51.002;5.354;2023-03-01T13:49:29;14.07;;;9.95;;
41921;SDS011;27609;51.002;5.354;2023-03-01T13:55:03;19.50;;;9.40;;
41921;SDS011;27609;51.002;5.354;2023-03-01T13:57:36;12.35;;;10.02;;
41921;SDS011;27609;51.002;5.354;2023-03-01T14:00:06;16.05;;;9.40;;
41921;SDS011;27609;51.002;5.354;2023-03-01T14:02:33;11.18;;;9.10;;
41921;SDS011;27609;51.002;5.354;2023-03-01T14:05:01;10.43;;;9.23;;
41921;SDS011;27609;51.002;5.354;2023-03-01T14:07:27;13.60;;;9.60;;
41921;SDS011;27609;51.002;5.354;2023-03-01T14:09:56;12.60;;;9.02;;
41921;SDS011;27609;51.002;5.354;2023-03-01T14:18:01;14.05;;;9.80;;
41921;SDS011;27609;51.002;5.354;2023-03-01T14:20:43;12.23;;;8.85;;
41921;SDS011;27609;51.002;5.354;2023-03-01T14:23:17;14.45;;;8.52;;
41921;SDS011;27609;51.002;5.354;2023-03-01T14:26:03;12.52;;;8.70;;
41921;SDS011;27609;51.002;5.354;2023-03-01T14:28:29;10.82;;;8.93;;
41921;SDS011;27609;51.002;5.354;2023-03-01T14:30:59;13.88;;;9.68;;
41921;SDS011;27609;51.002;5.354;2023-03-01T14:33:28;12.93;;;8.57;;
41921;SDS011;27609;51.002;5.354;2023-03-01T14:38:32;11.50;;;8.82;;
41921;SDS011;27609;51.002;5.354;2023-03-01T14:41:03;12.15;;;9.05;;
41921;SDS011;27609;51.002;5.354;2023-03-01T14:43:51;11.55;;;8.32;;
41921;SDS011;27609;51.002;5.354;2023-03-01T14:46:24;13.00;;;8.02;;
41921;SDS011;27609;51.002;5.354;2023-03-01T14:49:01;14.77;;;9.27;;
41921;SDS011;27609;51.002;5.354;2023-03-01T14:51:30;11.40;;;8.32;;
41921;SDS011;27609;51.002;5.354;2023-03-01T14:54:00;10.40;;;8.25;;
41921;SDS011;27609;51.002;5.354;2023-03-01T14:56:26;9.70;;;7.03;;
41921;SDS011;27609;51.002;5.354;2023-03-01T14:58:53;10.80;;;7.43;;
41921;SDS011;27609;51.002;5.354;2023-03-01T15:01:22;11.38;;;7.90;;
41921;SDS011;27609;51.002;5.354;2023-03-01T15:03:48;9.77;;;7.82;;
41921;SDS011;27609;51.002;5.354;2023-03-01T15:06:17;10.40;;;7.80;;
41921;SDS011;27609;51.002;5.354;2023-03-01T15:08:45;13.43;;;8.68;;
41921;SDS011;27609;51.002;5.354;2023-03-01T15:11:31;13.98;;;7.70;;
41921;SDS011;27609;51.002;5.354;2023-03-01T15:13:58;9.90;;;7.70;;
41921;SDS011;27609;51.002;5.354;2023-03-01T15:19:01;11.00;;;7.68;;
41921;SDS011;27609;51.002;5.354;2023-03-01T15:21:36;13.65;;;7.90;;
41921;SDS011;27609;51.002;5.354;2023-03-01T15:26:45;14.98;;;8.00;;
41921;SDS011;27609;51.002;5.354;2023-03-01T15:29:21;10.80;;;8.52;;
41921;SDS011;27609;51.002;5.354;2023-03-01T15:34:44;11.43;;;7.43;;
41921;SDS011;27609;51.002;5.354;2023-03-01T15:40:02;8.25;;;6.82;;
41921;SDS011;27609;51.002;5.354;2023-03-01T15:47:40;12.65;;;9.02;;
41921;SDS011;27609;51.002;5.354;2023-03-01T15:50:27;13.02;;;7.60;;
41921;SDS011;27609;51.002;5.354;2023-03-01T15:52:54;10.38;;;7.32;;
41921;SDS011;27609;51.002;5.354;2023-03-01T15:55:23;10.40;;;7.13;;
41921;SDS011;27609;51.002;5.354;2023-03-01T16:00:40;18.40;;;13.20;;
41921;SDS011;27609;51.002;5.354;2023-03-01T16:03:07;12.95;;;7.88;;
41921;SDS011;27609;51.002;5.354;2023-03-01T16:05:36;14.40;;;8.50;;
41921;SDS011;27609;51.002;5.354;2023-03-01T16:08:03;8.23;;;6.63;;
41921;SDS011;27609;51.002;5.354;2023-03-01T16:13:00;7.72;;;6.22;;
41921;SDS011;27609;51.002;5.354;2023-03-01T16:15:27;13.82;;;7.22;;
41921;SDS011;27609;51.002;5.354;2023-03-01T16:17:55;13.65;;;8.65;;
41921;SDS011;27609;51.002;5.354;2023-03-01T16:20:23;14.55;;;8.95;;
41921;SDS011;27609;51.002;5.354;2023-03-01T16:22:50;9.95;;;7.38;;
41921;SDS011;27609;51.002;5.354;2023-03-01T16:25:17;10.80;;;7.47;;
41921;SDS011;27609;51.002;5.354;2023-03-01T16:27:44;12.32;;;7.22;;
41921;SDS011;27609;51.002;5.354;2023-03-01T16:30:14;12.73;;;7.45;;
41921;SDS011;27609;51.002;5.354;2023-03-01T16:32:43;20.80;;;14.48;;
41921;SDS011;27609;51.002;5.354;2023-03-01T16:35:11;11.90;;;7.15;;
41921;SDS011;27609;51.002;5.354;2023-03-01T16:37:38;12.63;;;6.78;;
41921;SDS011;27609;51.002;5.354;2023-03-01T16:40:04;9.07;;;6.75;;
41921;SDS011;27609;51.002;5.354;2023-03-01T16:42:37;11.80;;;6.70;;
41921;SDS011;27609;51.002;5.354;2023-03-01T16:45:03;11.60;;;7.05;;
41921;SDS011;27609;51.002;5.354;2023-03-01T16:47:29;12.18;;;7.97;;
41921;SDS011;27609;51.002;5.354;2023-03-01T16:49:55;12.52;;;7.95;;
41921;SDS011;27609;51.002;5.354;2023-03-01T16:52:21;10.80;;;7.55;;
41921;SDS011;27609;51.002;5.354;2023-03-01T16:54:47;10.52;;;7.68;;
41921;SDS011;27609;51.002;5.354;2023-03-01T16:57:13;9.50;;;6.45;;
41921;SDS011;27609;51.002;5.354;2023-03-01T16:59:39;16.17;;;7.45;;
41921;SDS011;27609;51.002;5.354;2023-03-01T17:02:05;8.85;;;6.82;;
41921;SDS011;27609;51.002;5.354;2023-03-01T17:04:35;16.95;;;7.88;;